Time;durP1;ratioP1;P1;durP2;ratioP2;P2;SDS_P1;SDS_P2;PMS_P1;PMS_P2;Temp;Humidity;BMP_temperature;BMP_pressure;BME280_temperature;BME280_humidity;BME280_pressure;Samples;Min_cycle;Max_cycle;Signal;HPM_P1;HPM_P2
2023/08/09 00:02:27;;;;;;;4.68;2.38;;;;;;;17.25;90.68;99874.34;10204957;28;20070;-61
2023/08/09 00:07:29;;;;;;;3.20;1.92;;;;;;;17.21;91.01;99863.13;10190692;28;20174;-61
2023/08/09 00:12:31;;;;;;;2.95;2.40;;;;;;;17.17;91.75;99860.97;10175212;28;20511;-60
2023/08/09 00:17:33;;;;;;;2.58;2.20;;;;;;;17.17;91.61;99866.34;10192755;28;20047;-60
2023/08/09 00:22:34;;;;;;;5.28;2.30;;;;;;;17.11;92.19;99849.06;10190832;28;20737;-61
2023/08/09 00:27:36;;;;;;;3.97;2.70;;;;;;;17.13;92.19;99860.50;10204878;28;20051;-60
2023/08/09 00:32:39;;;;;;;5.25;2.30;;;;;;;17.08;93.10;99844.03;10187546;28;20886;-60
2023/08/09 00:37:40;;;;;;;4.45;2.60;;;;;;;17.08;93.16;99842.19;10190208;28;20054;-60
2023/08/09 00:42:42;;;;;;;3.45;2.20;;;;;;;17.01;93.66;99834.97;10189568;28;20792;-61
2023/08/09 00:47:44;;;;;;;3.80;2.17;;;;;;;16.92;93.37;99843.09;10187259;28;20147;-60
2023/08/09 00:52:46;;;;;;;4.32;2.22;;;;;;;16.93;94.22;99843.94;10177993;28;20987;-60
2023/08/09 00:57:49;;;;;;;2.80;2.45;;;;;;;16.93;93.94;99839.41;10191862;28;20142;-61
2023/08/09 01:02:50;;;;;;;5.20;2.83;;;;;;;16.93;94.79;99834.03;10190866;28;20114;-60
2023/08/09 01:07:59;;;;;;;3.03;2.72;;;;;;;16.88;94.75;99832.88;10190974;28;20054;-60
2023/08/09 01:13:06;;;;;;;4.25;2.83;;;;;;;16.78;95.65;99822.28;10191653;28;20051;-60
2023/08/09 01:18:08;;;;;;;2.78;2.55;;;;;;;16.83;95.51;99838.75;10190138;28;20491;-60
2023/08/09 01:23:18;;;;;;;4.40;2.80;;;;;;;16.85;95.53;99842.09;10188775;28;20054;-60
2023/08/09 01:28:20;;;;;;;5.60;3.08;;;;;;;16.81;96.01;99837.25;10183997;28;20088;-60
2023/08/09 01:33:21;;;;;;;5.47;2.80;;;;;;;16.83;95.86;99843.25;10178409;28;20130;-60
2023/08/09 01:38:28;;;;;;;3.55;2.50;;;;;;;16.87;95.43;99840.09;10189530;28;20062;-61
2023/08/09 01:43:30;;;;;;;3.78;2.63;;;;;;;16.91;95.65;99837.91;10185244;28;20084;-60
2023/08/09 01:48:32;;;;;;;5.13;3.00;;;;;;;16.94;95.53;99840.25;10186151;28;20135;-60
2023/08/09 01:53:33;;;;;;;3.78;2.47;;;;;;;17.01;95.77;99851.13;10171720;28;20505;-61
2023/08/09 01:58:35;;;;;;;4.22;2.28;;;;;;;17.03;95.23;99838.34;10181276;28;20739;-61
2023/08/09 02:03:36;;;;;;;3.28;2.80;;;;;;;17.03;94.93;99838.34;10183695;28;20102;-61
2023/08/09 02:08:38;;;;;;;3.78;2.88;;;;;;;16.98;95.64;99829.97;10199363;28;20791;-60
2023/08/09 02:13:40;;;;;;;4.30;3.40;;;;;;;16.96;95.94;99833.69;10182128;28;20118;-60
2023/08/09 02:18:42;;;;;;;3.95;2.65;;;;;;;16.92;95.68;99821.59;10185317;28;20063;-60
2023/08/09 02:23:43;;;;;;;5.05;3.63;;;;;;;16.94;96.68;99841.06;10183473;28;20061;-60
2023/08/09 02:28:45;;;;;;;4.18;3.28;;;;;;;16.95;95.62;99832.00;10184189;28;20066;-60
2023/08/09 02:33:47;;;;;;;3.65;3.28;;;;;;;16.92;95.82;99829.66;10181953;28;20074;-60
2023/08/09 02:38:48;;;;;;;6.45;3.65;;;;;;;16.96;95.63;99830.13;10172080;28;20134;-61
2023/08/09 02:43:49;;;;;;;4.60;3.45;;;;;;;16.94;96.20;99824.94;10185835;28;20043;-61
2023/08/09 02:48:51;;;;;;;3.55;3.13;;;;;;;16.89;96.79;99816.56;10176252;28;20050;-61
2023/08/09 02:54:04;;;;;;;5.47;3.92;;;;;;;16.89;97.26;99821.94;10198248;28;20051;-60
2023/08/09 02:59:06;;;;;;;5.15;3.90;;;;;;;16.87;98.01;99817.75;10185684;28;20060;-60
2023/08/09 03:04:08;;;;;;;3.95;3.30;;;;;;;16.88;98.14;99824.81;10200721;28;20440;-61
2023/08/09 03:09:10;;;;;;;4.38;3.40;;;;;;;16.87;98.47;99823.94;10184620;28;20573;-61
2023/08/09 03:14:13;;;;;;;5.05;4.40;;;;;;;16.84;99.07;99824.28;10171160;28;20785;-60
2023/08/09 03:19:15;;;;;;;4.82;3.85;;;;;;;16.83;98.65;99830.69;10196165;28;20055;-60
2023/08/09 03:24:16;;;;;;;4.47;3.88;;;;;;;16.76;99.13;99835.91;10182666;28;20162;-60
2023/08/09 03:29:18;;;;;;;5.97;4.25;;;;;;;16.74;99.60;99829.03;10183354;28;20411;-61
2023/08/09 03:34:21;;;;;;;5.18;3.90;;;;;;;16.68;100.00;99827.88;10184616;28;20051;-60
2023/08/09 03:39:23;;;;;;;4.93;4.35;;;;;;;16.67;100.00;99844.19;10197832;28;20099;-60
2023/08/09 03:44:25;;;;;;;5.55;4.18;;;;;;;16.66;100.00;99831.75;10180068;28;20122;-60
2023/08/09 03:49:27;;;;;;;5.25;4.75;;;;;;;16.66;100.00;99834.44;10185428;28;20047;-60
2023/08/09 03:54:29;;;;;;;8.43;4.93;;;;;;;16.60;100.00;99836.81;10183337;28;20160;-61
2023/08/09 03:59:31;;;;;;;6.75;3.97;;;;;;;16.65;100.00;99841.66;10187629;28;20506;-61
2023/08/09 04:04:32;;;;;;;3.70;3.17;;;;;;;16.69;100.00;99839.47;10182762;28;20055;-61
2023/08/09 04:09:34;;;;;;;5.38;3.35;;;;;;;16.73;99.92;99854.22;10170498;28;20073;-60
2023/08/09 04:14:35;;;;;;;4.10;3.17;;;;;;;16.81;99.45;99850.69;10182654;28;20062;-60
2023/08/09 04:19:37;;;;;;;4.03;3.05;;;;;;;16.83;98.94;99859.38;10198312;28;20146;-60
2023/08/09 04:24:39;;;;;;;5.22;3.78;;;;;;;16.86;98.79;99859.91;10181298;28;20122;-60
2023/08/09 04:29:41;;;;;;;3.28;2.92;;;;;;;16.86;99.18;99850.97;10185360;28;20050;-60
2023/08/09 04:34:43;;;;;;;5.35;3.05;;;;;;;16.83;98.36;99860.25;10183753;28;20079;-61
2023/08/09 04:39:44;;;;;;;5.68;2.97;;;;;;;16.86;98.63;99865.28;10184435;28;20536;-60
2023/08/09 04:44:46;;;;;;;6.07;4.05;;;;;;;16.87;98.55;99866.97;10181763;28;20079;-60
2023/08/09 04:49:47;;;;;;;4.70;3.30;;;;;;;16.84;98.56;99861.06;10193108;28;20204;-60
2023/08/09 04:54:49;;;;;;;5.95;3.35;;;;;;;16.79;98.80;99864.28;10188940;28;20050;-60
2023/08/09 04:59:50;;;;;;;6.38;2.95;;;;;;;16.77;98.94;99867.16;10188677;28;20392;-61
2023/08/09 05:04:52;;;;;;;4.55;3.42;;;;;;;16.73;98.74;99878.44;10188745;28;20153;-60
2023/08/09 05:09:54;;;;;;;5.35;2.72;;;;;;;16.74;98.69;99877.41;10188422;28;20050;-60
2023/08/09 05:14:57;;;;;;;5.43;2.80;;;;;;;16.73;99.03;99878.44;10188830;28;20678;-60
2023/08/09 05:19:59;;;;;;;4.90;2.65;;;;;;;16.76;99.08;99888.81;10188097;28;20056;-62
2023/08/09 05:25:00;;;;;;;3.65;2.33;;;;;;;16.83;99.08;99887.13;10190569;28;20047;-60
2023/08/09 05:30:04;;;;;;;6.93;2.70;;;;;;;16.89;99.15;99891.84;10190297;28;20063;-60
2023/08/09 05:35:06;;;;;;;3.72;2.95;;;;;;;16.90;98.11;99896.22;10173936;28;20154;-62
2023/08/09 05:40:13;;;;;;;4.68;2.90;;;;;;;16.94;98.46;99894.84;10189764;28;20101;-60
2023/08/09 05:45:14;;;;;;;3.22;2.55;;;;;;;17.01;98.46;99894.13;10172259;28;20051;-60
2023/08/09 05:50:16;;;;;;;5.68;2.95;;;;;;;17.05;98.19;99901.69;10186051;28;20492;-60
2023/08/09 05:55:17;;;;;;;3.33;3.03;;;;;;;17.08;98.96;99895.97;10179358;28;20296;-60
2023/08/09 06:00:20;;;;;;;4.95;3.10;;;;;;;17.11;98.36;99894.78;10183582;28;20058;-60
2023/08/09 06:05:25;;;;;;;4.50;2.42;;;;;;;17.13;97.71;99906.22;10184887;28;20106;-60
2023/08/09 06:10:27;;;;;;;3.65;2.65;;;;;;;17.18;97.91;99911.88;10184213;28;20102;-60
2023/08/09 06:15:29;;;;;;;3.83;2.70;;;;;;;17.15;98.55;99909.53;10183694;28;20455;-62
2023/08/09 06:20:31;;;;;;;4.25;2.83;;;;;;;17.13;98.51;99925.84;10188648;28;20066;-61
2023/08/09 06:25:33;;;;;;;4.93;2.78;;;;;;;17.15;100.00;99933.75;10199222;28;20059;-61
2023/08/09 06:30:34;;;;;;;3.67;2.50;;;;;;;17.19;100.00;99947.69;10186516;28;20055;-60
2023/08/09 06:35:36;;;;;;;3.53;2.15;;;;;;;17.24;100.00;99954.22;10182482;28;20589;-60
2023/08/09 06:40:39;;;;;;;3.33;1.70;;;;;;;16.91;98.46;99983.06;10187650;28;22091;-60
2023/08/09 06:45:40;;;;;;;1.30;0.60;;;;;;;16.70;99.13;99999.69;10170358;28;20055;-61
2023/08/09 06:50:42;;;;;;;0.85;0.10;;;;;;;16.74;97.29;99984.94;10197707;28;20667;-60
2023/08/09 06:55:43;;;;;;;3.10;0.17;;;;;;;16.83;95.25;100000.03;10184550;28;20344;-60
2023/08/09 07:00:46;;;;;;;0.57;0.10;;;;;;;16.78;94.35;100005.06;10181132;28;20055;-61
2023/08/09 07:05:48;;;;;;;0.98;0.10;;;;;;;16.74;94.83;100017.19;10184786;28;20166;-60
2023/08/09 07:10:49;;;;;;;0.60;0.10;;;;;;;16.75;94.65;100018.84;10179149;28;20125;-60
2023/08/09 07:15:51;;;;;;;0.73;0.10;;;;;;;16.82;95.14;100025.22;10169956;28;20146;-60
2023/08/09 07:20:53;;;;;;;0.52;0.15;;;;;;;16.80;94.61;100032.63;10181877;28;20067;-60
2023/08/09 07:25:54;;;;;;;0.68;0.10;;;;;;;16.85;95.79;100038.31;10186544;28;20566;-61
2023/08/09 07:30:56;;;;;;;0.55;0.20;;;;;;;16.88;94.56;100039.88;10173579;28;20762;-60
2023/08/09 07:35:57;;;;;;;0.10;0.10;;;;;;;16.84;94.71;100038.47;10198199;28;20551;-61
2023/08/09 07:41:00;;;;;;;0.45;0.17;;;;;;;16.90;95.70;100052.13;10178719;28;20118;-60
2023/08/09 07:46:05;;;;;;;1.63;0.22;;;;;;;16.98;96.30;100047.72;10184425;28;20099;-61
2023/08/09 07:51:11;;;;;;;1.15;0.20;;;;;;;17.04;95.89;100055.13;10183557;28;20049;-60
2023/08/09 07:56:29;;;;;;;1.05;0.30;;;;;;;17.02;95.58;100067.91;10176588;28;20058;-60
2023/08/09 08:01:33;;;;;;;0.45;0.13;;;;;;;17.07;94.67;100082.53;10173116;28;20047;-60
2023/08/09 08:06:34;;;;;;;1.80;0.30;;;;;;;17.07;96.17;100081.66;10177535;28;20201;-60
2023/08/09 08:11:36;;;;;;;1.30;0.30;;;;;;;17.08;95.31;100089.59;10181668;28;20072;-60
2023/08/09 08:16:37;;;;;;;0.75;0.30;;;;;;;17.13;93.78;100107.91;10155413;28;20177;-61
2023/08/09 08:21:40;;;;;;;0.65;0.35;;;;;;;17.15;93.87;100122.00;10199290;28;20534;-60
2023/08/09 08:26:41;;;;;;;4.18;1.70;;;;;;;17.11;93.93;100120.66;10204082;28;20712;-61
2023/08/09 08:31:44;;;;;;;1.92;0.43;;;;;;;17.13;93.51;100132.09;10187452;28;20170;-60
2023/08/09 08:36:47;;;;;;;1.43;0.33;;;;;;;17.10;93.84;100132.44;10200566;28;20161;-61
2023/08/09 08:41:49;;;;;;;1.15;0.30;;;;;;;17.12;93.66;100135.78;10187592;28;20190;-60
2023/08/09 08:46:51;;;;;;;1.13;0.35;;;;;;;17.13;94.24;100143.69;10184986;28;20610;-60
2023/08/09 08:51:58;;;;;;;0.50;0.20;;;;;;;17.17;95.51;100141.50;10190196;28;20135;-60
2023/08/09 08:57:00;;;;;;;0.82;0.30;;;;;;;17.11;94.43;100150.25;10190389;28;20071;-60
2023/08/09 09:02:02;;;;;;;1.10;0.30;;;;;;;17.26;93.36;100139.63;10189761;28;20133;-60
2023/08/09 09:07:05;;;;;;;2.22;0.35;;;;;;;17.42;93.31;100134.25;10185466;28;20831;-61
2023/08/09 09:12:07;;;;;;;1.15;0.70;;;;;;;17.65;92.63;100145.13;10201254;28;20118;-61
2023/08/09 09:17:09;;;;;;;1.80;0.43;;;;;;;17.89;91.76;100143.38;10191053;28;20043;-61
2023/08/09 09:22:25;;;;;;;1.38;0.47;;;;;;;18.02;91.71;100146.38;10199608;28;20070;-60
2023/08/09 09:27:31;;;;;;;0.82;0.47;;;;;;;18.13;90.89;100142.44;10182937;28;20051;-60
2023/08/09 09:32:33;;;;;;;1.00;0.50;;;;;;;18.12;90.23;100145.31;10186454;28;20059;-60
2023/08/09 09:37:35;;;;;;;1.45;0.25;;;;;;;18.08;90.67;100139.44;10187854;28;20052;-60
2023/08/09 09:42:37;;;;;;;0.90;0.20;;;;;;;18.12;90.19;100130.00;10186248;28;20397;-60
2023/08/09 09:47:39;;;;;;;1.00;0.60;;;;;;;18.16;87.40;100135.88;10185275;28;20796;-60
2023/08/09 09:52:42;;;;;;;0.98;0.50;;;;;;;18.25;88.91;100137.50;10186222;28;20098;-60
2023/08/09 09:57:44;;;;;;;2.33;0.50;;;;;;;18.38;87.52;100148.53;10186438;28;21267;-60
2023/08/09 10:02:49;;;;;;;1.00;0.47;;;;;;;18.53;86.84;100154.03;10169117;28;21379;-60
2023/08/09 10:07:51;;;;;;;0.77;0.40;;;;;;;18.64;85.20;100143.84;10202889;28;20737;-60
2023/08/09 10:12:55;;;;;;;2.60;0.87;;;;;;;18.77;82.86;100149.50;10188498;28;20102;-60
2023/08/09 10:18:02;;;;;;;0.75;0.45;;;;;;;19.02;80.05;100152.88;10187488;28;20054;-60
2023/08/09 10:23:04;;;;;;;1.60;0.32;;;;;;;19.46;78.62;100158.56;10164759;28;20133;-60
2023/08/09 10:28:06;;;;;;;0.55;0.25;;;;;;;19.90;77.82;100158.59;10198430;28;20280;-58
2023/08/09 10:33:07;;;;;;;0.60;0.30;;;;;;;20.28;75.32;100163.03;10171131;28;20520;-58
2023/08/09 10:38:15;;;;;;;1.17;0.30;;;;;;;20.70;70.20;100168.72;10185691;28;20510;-59
2023/08/09 10:43:20;;;;;;;0.77;0.40;;;;;;;20.91;69.98;100165.19;10184298;28;20059;-60
2023/08/09 10:48:28;;;;;;;2.80;0.55;;;;;;;21.28;67.69;100174.88;10202245;28;20079;-59
2023/08/09 10:53:30;;;;;;;1.85;0.40;;;;;;;21.58;65.91;100157.66;10186743;28;20121;-59
2023/08/09 10:58:31;;;;;;;1.48;0.47;;;;;;;21.65;65.14;100155.84;10202134;28;20618;-60
2023/08/09 11:03:33;;;;;;;0.63;0.32;;;;;;;21.60;63.76;100169.13;10171925;28;20131;-60
2023/08/09 11:08:34;;;;;;;0.40;0.30;;;;;;;21.60;63.14;100171.81;10182495;28;20147;-60
2023/08/09 11:13:37;;;;;;;2.75;0.65;;;;;;;21.58;62.68;100168.50;10165717;28;20063;-60
2023/08/09 11:19:07;;;;;;;1.45;0.60;;;;;;;21.52;60.80;100179.06;10183117;28;20182;-60
2023/08/09 11:24:24;;;;;;;1.33;0.40;;;;;;;21.33;61.12;100193.25;10183359;28;20831;-60
2023/08/09 11:29:28;;;;;;;0.80;0.40;;;;;;;21.19;60.19;100189.59;10187206;28;20050;-60
2023/08/09 11:34:29;;;;;;;;;;;;;;;21.12;60.27;100192.25;10193283;28;20052;-66
2023/08/09 11:39:31;;;;;;;1.80;0.38;;;;;;;21.15;62.28;100197.28;10186940;28;20681;-59
2023/08/09 11:44:38;;;;;;;1.98;0.50;;;;;;;21.18;61.29;100191.47;10197881;28;20047;-59
2023/08/09 11:49:40;;;;;;;1.73;0.43;;;;;;;21.15;58.56;100186.47;10180251;28;20055;-60
2023/08/09 11:54:42;;;;;;;3.05;0.60;;;;;;;21.15;57.41;100191.88;10181690;28;20342;-59
2023/08/09 11:59:44;;;;;;;0.70;0.30;;;;;;;21.02;59.18;100180.91;10183814;28;20744;-59
2023/08/09 12:04:46;;;;;;;1.48;0.50;;;;;;;21.08;59.47;100190.97;10201019;28;20566;-60
2023/08/09 12:09:49;;;;;;;0.57;0.40;;;;;;;21.12;60.87;100184.16;10166724;28;20533;-59
2023/08/09 12:14:52;;;;;;;2.38;0.40;;;;;;;21.12;59.33;100197.69;10181259;28;20735;-60
2023/08/09 12:19:56;;;;;;;1.67;0.40;;;;;;;21.06;58.78;100203.00;10175930;28;20048;-60
2023/08/09 12:24:58;;;;;;;0.70;0.40;;;;;;;21.06;58.21;100209.25;10182786;28;20195;-60
2023/08/09 12:30:00;;;;;;;1.27;0.47;;;;;;;21.09;59.12;100208.88;10183954;28;20098;-60
2023/08/09 12:35:04;;;;;;;0.55;0.35;;;;;;;21.11;57.74;100212.22;10168056;28;20118;-58
2023/08/09 12:40:07;;;;;;;;;;;;;;;21.06;56.65;100222.78;10188703;28;20096;-58
2023/08/09 12:45:08;;;;;;;1.42;0.30;;;;;;;21.01;58.19;100219.81;10172144;28;20558;-59
2023/08/09 12:50:10;;;;;;;1.65;0.30;;;;;;;21.04;59.62;100232.16;10171455;28;20063;-60
2023/08/09 12:55:12;;;;;;;1.52;0.63;;;;;;;21.00;56.12;100237.94;10180060;28;20055;-59
2023/08/09 13:00:15;;;;;;;1.52;0.60;;;;;;;20.94;57.25;100243.25;10185778;28;20055;-59
2023/08/09 13:05:17;;;;;;;2.67;0.73;;;;;;;20.92;59.17;100239.94;10172605;28;20138;-59
2023/08/09 13:10:20;;;;;;;0.50;0.30;;;;;;;20.84;58.67;100239.00;10186883;28;21393;-59
2023/08/09 13:15:22;;;;;;;1.85;0.45;;;;;;;20.86;58.48;100240.69;10190193;28;20055;-60
2023/08/09 13:20:25;;;;;;;2.55;0.85;;;;;;;20.85;59.71;100242.53;10204559;28;20496;-60
2023/08/09 13:25:27;;;;;;;1.67;0.40;;;;;;;20.83;59.44;100241.91;10191462;28;20102;-60
2023/08/09 13:30:29;;;;;;;0.52;0.30;;;;;;;20.83;58.43;100237.31;10185275;28;20064;-60
2023/08/09 13:35:34;;;;;;;2.63;0.60;;;;;;;20.89;59.40;100233.03;10188577;28;20848;-60
2023/08/09 13:40:35;;;;;;;1.75;0.30;;;;;;;20.93;59.89;100238.91;10187434;28;20714;-60
2023/08/09 13:45:37;;;;;;;0.68;0.38;;;;;;;20.98;59.81;100239.97;10200569;28;20671;-60
2023/08/09 13:50:39;;;;;;;0.68;0.40;;;;;;;20.93;58.94;100247.03;10185777;28;20058;-59
2023/08/09 13:55:42;;;;;;;3.10;0.50;;;;;;;20.77;58.53;100246.19;10202359;28;20059;-60
2023/08/09 14:00:43;;;;;;;2.20;0.40;;;;;;;20.73;59.50;100247.63;10185734;28;20771;-60
2023/08/09 14:05:48;;;;;;;1.13;0.43;;;;;;;20.89;59.47;100253.84;10185921;28;20051;-60
2023/08/09 14:10:49;;;;;;;1.45;0.50;;;;;;;20.86;56.74;100252.34;10184121;28;20746;-60
2023/08/09 14:15:51;;;;;;;1.05;0.60;;;;;;;20.90;58.42;100250.94;10185800;28;20055;-60
2023/08/09 14:20:53;;;;;;;0.70;0.40;;;;;;;20.95;57.56;100264.72;10185824;28;20059;-60
2023/08/09 14:25:54;;;;;;;3.75;0.50;;;;;;;20.93;55.45;100263.25;10200434;28;20059;-60
2023/08/09 14:30:56;;;;;;;0.90;0.55;;;;;;;20.87;54.13;100258.56;10175050;28;20469;-59
2023/08/09 14:35:58;;;;;;;1.70;0.75;;;;;;;20.88;55.19;100261.09;10183644;28;20056;-60
2023/08/09 14:40:59;;;;;;;1.25;0.40;;;;;;;20.89;53.50;100261.94;10165397;28;20069;-60
2023/08/09 14:46:01;;;;;;;1.27;0.80;;;;;;;20.81;54.39;100260.19;10187522;28;20114;-60
2023/08/09 14:51:03;;;;;;;0.90;0.50;;;;;;;20.79;54.27;100262.25;10183375;28;20091;-60
2023/08/09 14:56:05;;;;;;;1.25;0.60;;;;;;;20.79;55.00;100270.34;10180191;28;20051;-60
2023/08/09 15:01:06;;;;;;;2.45;0.60;;;;;;;20.86;55.43;100273.16;10189366;28;20055;-60
2023/08/09 15:06:08;;;;;;;3.40;1.52;;;;;;;20.89;54.96;100279.00;10184909;28;20199;-60
2023/08/09 15:11:09;;;;;;;1.85;0.50;;;;;;;20.96;55.04;100285.34;10200881;28;20451;-60
2023/08/09 15:16:11;;;;;;;1.40;0.50;;;;;;;21.04;55.12;100291.69;10177674;28;20051;-60
2023/08/09 15:21:13;;;;;;;1.27;0.50;;;;;;;21.10;54.49;100291.72;10184170;28;20071;-60
2023/08/09 15:26:14;;;;;;;1.23;0.50;;;;;;;21.11;54.13;100292.59;10187774;28;20059;-60
2023/08/09 15:31:16;;;;;;;1.83;0.65;;;;;;;21.21;53.27;100297.66;10179792;28;20059;-60
2023/08/09 15:36:17;;;;;;;2.17;0.60;;;;;;;21.21;52.92;100294.97;10183520;28;20047;-60
2023/08/09 15:41:19;;;;;;;1.30;0.60;;;;;;;21.27;52.16;100291.50;10196787;28;20063;-60
2023/08/09 15:46:20;;;;;;;1.13;0.55;;;;;;;21.26;50.66;100292.50;10164468;28;20521;-60
2023/08/09 15:51:22;;;;;;;1.20;0.50;;;;;;;21.25;50.76;100288.16;10193750;28;20052;-61
2023/08/09 15:56:23;;;;;;;1.45;0.80;;;;;;;21.25;50.45;100293.56;10187623;28;20457;-60
2023/08/09 16:01:27;;;;;;;1.30;0.50;;;;;;;21.26;50.22;100303.34;10168642;28;20059;-60
2023/08/09 16:06:28;;;;;;;1.50;0.50;;;;;;;21.18;49.20;100305.16;10182932;28;20145;-60
2023/08/09 16:11:30;;;;;;;3.60;1.00;;;;;;;21.09;49.66;100306.31;10182401;28;20055;-58
2023/08/09 16:16:32;;;;;;;2.13;0.63;;;;;;;21.04;49.62;100314.16;10181084;28;20734;-59
2023/08/09 16:21:35;;;;;;;1.20;0.70;;;;;;;21.02;49.81;100311.63;10178544;28;21348;-58
2023/08/09 16:26:36;;;;;;;3.25;0.77;;;;;;;20.94;49.37;100314.47;10184490;28;20056;-58
2023/08/09 16:31:38;;;;;;;1.20;0.52;;;;;;;20.98;49.25;100314.91;10182944;28;20099;-58
2023/08/09 16:36:40;;;;;;;1.05;0.65;;;;;;;21.03;48.55;100312.47;10183689;28;20059;-58
2023/08/09 16:41:41;;;;;;;2.65;0.70;;;;;;;20.95;47.30;100315.28;10184351;28;20751;-60
2023/08/09 16:46:45;;;;;;;0.93;0.43;;;;;;;20.91;47.58;100319.41;10183662;28;20685;-59
2023/08/09 16:51:47;;;;;;;2.15;0.57;;;;;;;20.87;47.95;100328.91;10189199;28;20562;-58
2023/08/09 16:56:49;;;;;;;0.90;0.60;;;;;;;20.80;46.56;100318.84;10177591;28;20051;-59
2023/08/09 17:01:52;;;;;;;1.05;0.95;;;;;;;20.75;48.15;100326.72;10186981;28;20630;-60
2023/08/09 17:06:53;;;;;;;2.10;0.70;;;;;;;20.81;47.67;100335.94;10189799;28;20039;-59
2023/08/09 17:11:55;;;;;;;0.73;0.50;;;;;;;20.72;48.80;100339.78;10187340;28;20058;-59
2023/08/09 17:16:57;;;;;;;1.85;0.80;;;;;;;20.77;49.61;100332.75;10174348;28;20158;-58
2023/08/09 17:21:58;;;;;;;1.48;0.60;;;;;;;20.72;49.42;100327.09;10184099;28;20457;-59
2023/08/09 17:27:00;;;;;;;3.63;1.08;;;;;;;20.64;48.45;100328.00;10186987;28;20074;-59
2023/08/09 17:32:02;;;;;;;1.48;0.73;;;;;;;20.68;49.05;100325.78;10202917;28;20483;-57
2023/08/09 17:37:04;;;;;;;6.22;1.13;;;;;;;20.64;48.98;100328.00;10187088;28;20131;-59
2023/08/09 17:42:07;;;;;;;2.55;1.10;;;;;;;20.64;48.95;100333.41;10186210;28;20059;-59
2023/08/09 17:47:11;;;;;;;2.47;1.20;;;;;;;20.63;48.65;100339.00;10188383;28;20614;-59
2023/08/09 17:52:13;;;;;;;2.00;0.70;;;;;;;20.63;49.07;100339.84;10183152;28;20063;-65
2023/08/09 17:57:14;;;;;;;1.20;1.00;;;;;;;20.60;48.82;100333.97;10188256;28;20066;-58
2023/08/09 18:02:16;;;;;;;1.33;0.95;;;;;;;20.61;49.03;100355.41;10181860;28;20543;-59
2023/08/09 18:07:18;;;;;;;1.23;0.95;;;;;;;20.60;50.12;100361.84;10202734;28;20710;-59
2023/08/09 18:12:19;;;;;;;2.88;0.90;;;;;;;20.57;49.88;100355.97;10187123;28;20051;-60
2023/08/09 18:17:22;;;;;;;2.38;1.10;;;;;;;20.53;50.30;100350.09;10169565;28;20052;-59
2023/08/09 18:22:25;;;;;;;1.58;0.85;;;;;;;20.47;50.59;100370.59;10188011;28;20063;-60
2023/08/09 18:27:27;;;;;;;6.03;0.90;;;;;;;20.41;50.80;100371.34;10164030;28;20051;-59
2023/08/09 18:32:28;;;;;;;1.65;1.20;;;;;;;20.39;51.38;100380.69;10185545;28;21432;-59
2023/08/09 18:37:30;;;;;;;1.40;1.10;;;;;;;20.38;52.17;100392.50;10184014;28;20067;-60
2023/08/09 18:42:32;;;;;;;1.58;1.15;;;;;;;20.34;53.74;100389.31;10186636;28;20063;-61
2023/08/09 18:47:34;;;;;;;1.75;1.33;;;;;;;20.30;53.18;100401.53;10182831;28;20102;-60
2023/08/09 18:52:38;;;;;;;6.00;2.45;;;;;;;20.22;52.77;100404.31;10183820;28;20459;-59
2023/08/09 18:57:39;;;;;;;2.28;1.73;;;;;;;20.12;53.37;100408.09;10181905;28;20051;-61
2023/08/09 19:02:42;;;;;;;3.80;2.40;;;;;;;20.10;55.13;100423.69;10185576;28;20159;-59
2023/08/09 19:07:45;;;;;;;3.22;2.00;;;;;;;20.04;55.76;100416.31;10195721;28;20058;-59
2023/08/09 19:12:49;;;;;;;3.83;1.77;;;;;;;19.98;55.27;100422.41;10183117;28;21053;-59
2023/08/09 19:17:54;;;;;;;2.33;1.80;;;;;;;19.92;56.23;100425.81;10184587;28;20051;-59
2023/08/09 19:22:59;;;;;;;5.47;2.60;;;;;;;19.86;56.74;100434.66;10185185;28;20745;-59
2023/08/09 19:28:00;;;;;;;4.15;2.20;;;;;;;19.80;55.61;100440.78;10182415;28;20525;-60
2023/08/09 19:33:02;;;;;;;6.72;3.13;;;;;;;19.72;54.85;100439.78;10183184;28;20063;-59
2023/08/09 19:38:04;;;;;;;2.45;1.83;;;;;;;19.67;55.50;100439.50;10174439;28;20574;-59
2023/08/09 19:43:05;;;;;;;3.30;2.17;;;;;;;19.61;56.90;100443.72;10181465;28;20055;-59
2023/08/09 19:48:07;;;;;;;5.38;2.53;;;;;;;19.53;56.65;100443.78;10180802;28;20062;-59
2023/08/09 19:53:09;;;;;;;4.18;2.80;;;;;;;19.47;57.19;100440.94;10185440;28;20685;-59
2023/08/09 19:58:11;;;;;;;4.63;3.38;;;;;;;19.39;57.16;100448.06;10184241;28;20143;-59
2023/08/09 20:03:13;;;;;;;4.43;2.55;;;;;;;19.33;57.30;100447.94;10182858;28;20187;-60
2023/08/09 20:08:14;;;;;;;3.97;3.03;;;;;;;19.29;57.77;100449.31;10182116;28;20066;-58
2023/08/09 20:13:17;;;;;;;3.58;3.20;;;;;;;19.23;58.09;100448.13;10173899;28;20047;-59
2023/08/09 20:18:22;;;;;;;5.45;3.10;;;;;;;19.16;58.48;100439.09;10188689;28;20063;-60
2023/08/09 20:23:24;;;;;;;4.80;2.97;;;;;;;19.10;58.05;100437.09;10206813;28;20051;-59
2023/08/09 20:28:25;;;;;;;4.22;2.75;;;;;;;19.04;59.14;100439.47;10191188;28;20242;-60
2023/08/09 20:33:27;;;;;;;3.67;3.17;;;;;;;19.01;59.31;100442.50;10190769;28;20057;-59
2023/08/09 20:38:28;;;;;;;4.85;3.33;;;;;;;18.90;59.16;100454.53;10196925;28;20050;-59
2023/08/09 20:43:30;;;;;;;7.63;4.95;;;;;;;18.84;59.43;100454.31;10178558;28;20085;-59
2023/08/09 20:48:31;;;;;;;5.32;4.00;;;;;;;18.80;60.45;100461.09;10188089;28;20131;-60
2023/08/09 20:53:33;;;;;;;5.18;3.83;;;;;;;18.72;60.67;100454.69;10205833;28;20154;-60
2023/08/09 20:58:35;;;;;;;5.13;4.38;;;;;;;18.65;63.20;100461.78;10188127;28;20067;-60
2023/08/09 21:03:37;;;;;;;4.18;3.25;;;;;;;18.61;61.84;100463.13;10189216;28;20141;-61
2023/08/09 21:08:38;;;;;;;4.43;3.33;;;;;;;18.57;62.70;100455.56;10195714;28;20058;-61
2023/08/09 21:13:40;;;;;;;3.97;3.40;;;;;;;18.50;62.40;100460.81;10172217;28;20622;-61
2023/08/09 21:18:46;;;;;;;4.50;3.28;;;;;;;18.34;64.22;100469.72;10203309;28;20118;-60
2023/08/09 21:23:47;;;;;;;3.78;2.85;;;;;;;18.20;63.75;100468.56;10186953;28;20510;-66
2023/08/09 21:28:52;;;;;;;4.47;3.30;;;;;;;18.17;64.70;100472.44;10190566;28;20804;-60
2023/08/09 21:33:54;;;;;;;3.58;3.03;;;;;;;18.20;64.47;100476.66;10188479;28;20058;-60
2023/08/09 21:38:55;;;;;;;7.53;3.15;;;;;;;18.21;64.26;100475.66;10187048;28;20198;-59
2023/08/09 21:43:57;;;;;;;6.82;3.65;;;;;;;18.22;63.09;100484.56;10190362;28;20095;-59
2023/08/09 21:48:58;;;;;;;6.10;3.47;;;;;;;18.15;62.64;100487.06;10192681;28;20574;-60
2023/08/09 21:54:00;;;;;;;6.05;3.42;;;;;;;18.11;63.26;100486.56;10188794;28;20062;-60
2023/08/09 21:59:03;;;;;;;3.95;2.85;;;;;;;18.08;64.46;100499.53;10188645;28;20052;-60
2023/08/09 22:04:04;;;;;;;3.50;3.20;;;;;;;18.06;64.96;100496.16;10190469;28;20144;-59
2023/08/09 22:09:06;;;;;;;3.53;3.22;;;;;;;18.02;65.17;100491.09;10186224;28;20067;-59
2023/08/09 22:14:07;;;;;;;3.88;2.90;;;;;;;17.98;65.72;100500.50;10174430;28;20110;-60
2023/08/09 22:19:09;;;;;;;4.32;3.28;;;;;;;17.91;65.88;100499.50;10202069;28;20051;-59
2023/08/09 22:24:11;;;;;;;4.75;3.67;;;;;;;17.89;65.64;100501.50;10188702;28;20058;-60
2023/08/09 22:29:14;;;;;;;3.17;2.90;;;;;;;17.79;64.81;100501.66;10187920;28;20198;-60
2023/08/09 22:34:20;;;;;;;5.32;3.75;;;;;;;17.73;65.58;100505.00;10187841;28;20597;-60
2023/08/09 22:39:22;;;;;;;4.75;3.40;;;;;;;17.69;65.75;100509.00;10185429;28;20046;-60
2023/08/09 22:44:24;;;;;;;6.32;3.60;;;;;;;17.67;66.05;100513.72;10187693;28;20062;-59
2023/08/09 22:49:25;;;;;;;4.45;3.83;;;;;;;17.62;66.42;100511.50;10191143;28;20058;-61
2023/08/09 22:54:28;;;;;;;3.85;3.45;;;;;;;17.56;67.16;100514.84;10186352;28;20532;-61
2023/08/09 22:59:29;;;;;;;5.47;3.70;;;;;;;17.55;67.69;100515.00;10185630;28;20171;-60
2023/08/09 23:04:31;;;;;;;3.78;3.47;;;;;;;17.50;67.60;100518.19;10181814;28;20254;-60
2023/08/09 23:09:33;;;;;;;5.93;4.28;;;;;;;17.45;67.79;100510.59;10182225;28;20149;-60
2023/08/09 23:14:35;;;;;;;4.85;3.65;;;;;;;17.43;68.52;100512.63;10184431;28;20058;-60